Time,TemperatureF,DewpointF,PressureIn,WindDirection,WindDirectionDegrees,WindSpeedMPH,WindSpeedGustMPH,Humidity,HourlyPrecipIn,Conditions,Clouds,dailyrainin,SoftwareType,DateUTC
2013-06-07 00:00:00,53.9,53.3,30.05,ESE,116,0.0,8.0,98,0.00,,,0.07,Wunderground v.1.15,2013-06-07 04:00:00,
2013-06-07 00:10:00,54.2,53.6,30.04,SSE,151,1.0,3.0,98,0.00,,,0.01,Wunderground v.1.15,2013-06-07 04:10:00,
2013-06-07 00:20:00,54.4,53.6,30.03,SSE,166,1.0,3.0,97,0.00,,,0.01,Wunderground v.1.15,2013-06-07 04:20:00,
2013-06-07 00:30:00,54.4,53.3,30.03,SE,126,1.0,2.0,96,0.00,,,0.01,Wunderground v.1.15,2013-06-07 04:30:00,
2013-06-07 00:40:00,54.1,53.3,30.02,SSE,164,1.0,1.0,97,0.00,,,0.02,Wunderground v.1.15,2013-06-07 04:40:00,
2013-06-07 00:50:00,54.2,53.6,30.02,SE,131,1.0,1.0,98,0.00,,,0.02,Wunderground v.1.15,2013-06-07 04:50:00,
2013-06-07 01:00:00,53.9,53.3,30.02,SE,140,0.0,0.0,98,0.00,,,0.02,Wunderground v.1.15,2013-06-07 05:00:00,
2013-06-07 01:10:00,53.9,53.3,30.01,SSE,161,1.0,1.0,98,0.00,,,0.03,Wunderground v.1.15,2013-06-07 05:10:00,
2013-06-07 01:20:00,53.9,53.6,30.00,SE,131,0.0,4.0,99,0.00,,,0.03,Wunderground v.1.15,2013-06-07 05:20:00,
2013-06-07 01:30:00,54.5,53.9,29.99,ENE,77,3.0,3.0,98,0.00,,,0.03,Wunderground v.1.15,2013-06-07 05:30:00,
2013-06-07 01:40:00,54.7,53.3,29.99,ESE,115,3.0,9.0,95,0.00,,,0.03,Wunderground v.1.15,2013-06-07 05:40:00,
2013-06-07 01:50:00,54.5,53.1,29.99,SSE,157,2.0,4.0,95,0.00,,,0.03,Wunderground v.1.15,2013-06-07 05:50:00,
2013-06-07 02:00:00,54.4,52.7,29.99,South,183,2.0,2.0,94,0.00,,,0.03,Wunderground v.1.15,2013-06-07 06:00:00,
2013-06-07 02:10:00,54.4,52.4,29.99,SE,136,2.0,2.0,93,0.00,,,0.03,Wunderground v.1.15,2013-06-07 06:10:00,
2013-06-07 02:20:00,54.4,52.1,29.99,SE,141,2.0,5.0,92,0.00,,,0.03,Wunderground v.1.15,2013-06-07 06:20:00,
2013-06-07 02:30:00,54.4,52.1,29.99,SE,139,3.0,3.0,92,0.00,,,0.03,Wunderground v.1.15,2013-06-07 06:30:00,
2013-06-07 02:40:00,54.2,51.0,29.99,SE,126,2.0,10.0,89,0.00,,,0.03,Wunderground v.1.15,2013-06-07 06:40:00,
2013-06-07 02:50:00,54.4,50.9,29.99,SSE,157,5.0,5.0,88,0.00,,,0.03,Wunderground v.1.15,2013-06-07 06:50:00,
2013-06-07 03:00:00,54.4,50.6,29.99,SSE,162,5.0,5.0,87,0.00,,,0.03,Wunderground v.1.15,2013-06-07 07:00:00,
2013-06-07 03:10:00,54.4,50.0,29.99,SSE,164,4.0,4.0,85,0.00,,,0.03,Wunderground v.1.15,2013-06-07 07:10:00,
2013-06-07 03:20:00,54.2,49.5,29.99,SE,131,4.0,4.0,84,0.00,,,0.03,Wunderground v.1.15,2013-06-07 07:20:00,
2013-06-07 03:30:00,54.2,49.1,29.98,SSE,160,4.0,4.0,83,0.00,,,0.03,Wunderground v.1.15,2013-06-07 07:30:00,
2013-06-07 03:40:00,54.1,48.7,29.98,East,95,3.0,4.0,82,0.00,,,0.03,Wunderground v.1.15,2013-06-07 07:40:00,
2013-06-07 03:50:00,54.1,48.4,29.98,ESE,121,4.0,10.0,81,0.00,,,0.03,Wunderground v.1.15,2013-06-07 07:50:00,
2013-06-07 04:00:00,54.1,48.1,29.98,ESE,102,4.0,6.0,80,0.00,,,0.03,Wunderground v.1.15,2013-06-07 08:00:00,
2013-06-07 04:10:00,53.9,48.5,29.97,SE,126,5.0,9.0,82,0.00,,,0.03,Wunderground v.1.15,2013-06-07 08:10:00,
2013-06-07 04:20:00,53.8,48.1,29.98,SE,141,5.0,5.0,81,0.00,,,0.03,Wunderground v.1.15,2013-06-07 08:20:00,
2013-06-07 04:30:00,53.5,48.5,29.98,SSE,157,3.0,5.0,83,0.00,,,0.03,Wunderground v.1.15,2013-06-07 08:30:00,
2013-06-07 04:40:00,52.8,48.4,29.98,SSE,147,3.0,3.0,85,0.00,,,0.04,Wunderground v.1.15,2013-06-07 08:40:00,
2013-06-07 04:50:00,52.2,48.8,29.97,South,177,3.0,4.0,88,0.00,,,0.04,Wunderground v.1.15,2013-06-07 08:50:00,
2013-06-07 05:00:00,51.9,48.8,29.97,SSE,160,2.0,4.0,89,0.04,,,0.05,Wunderground v.1.15,2013-06-07 09:00:00,
2013-06-07 05:10:00,52.0,48.6,29.97,SSE,148,3.0,4.0,88,0.00,,,0.05,Wunderground v.1.15,2013-06-07 09:10:00,
2013-06-07 05:20:00,51.9,48.8,29.97,SE,131,2.0,2.0,89,0.00,,,0.05,Wunderground v.1.15,2013-06-07 09:20:00,
2013-06-07 05:30:00,52.0,48.9,29.97,SE,137,4.0,6.0,89,0.00,,,0.05,Wunderground v.1.15,2013-06-07 09:30:00,
2013-06-07 05:40:00,52.3,48.9,29.97,SE,131,4.0,7.0,88,0.00,,,0.05,Wunderground v.1.15,2013-06-07 09:40:00,
2013-06-07 05:50:00,52.5,49.0,29.97,NE,52,4.0,6.0,88,0.00,,,0.05,Wunderground v.1.15,2013-06-07 09:50:00,
2013-06-07 06:00:00,52.6,48.8,29.97,East,100,5.0,5.0,87,0.00,,,0.05,Wunderground v.1.15,2013-06-07 10:00:00,
2013-06-07 06:10:00,52.6,49.4,29.98,ESE,121,3.0,3.0,89,0.00,,,0.05,Wunderground v.1.15,2013-06-07 10:10:00,
2013-06-07 06:30:00,52.6,49.8,29.97,NNE,29,4.0,4.0,90,0.00,,,0.06,Wunderground v.1.15,2013-06-07 10:30:00,
2013-06-07 06:40:00,52.8,50.2,29.97,ESE,121,2.0,2.0,91,0.04,,,0.07,Wunderground v.1.15,2013-06-07 10:40:00,
2013-06-07 06:50:00,52.9,50.3,29.97,SSE,151,4.0,5.0,91,0.04,,,0.07,Wunderground v.1.15,2013-06-07 10:50:00,
2013-06-07 07:00:00,53.1,50.2,29.97,ESE,106,4.0,4.0,90,0.00,,,0.07,Wunderground v.1.15,2013-06-07 11:00:00,
2013-06-07 07:10:00,53.1,50.2,29.97,ESE,121,3.0,15.0,90,0.00,,,0.07,Wunderground v.1.15,2013-06-07 11:10:00,
2013-06-07 07:20:00,53.1,50.2,29.98,SE,145,4.0,4.0,90,0.00,,,0.08,Wunderground v.1.15,2013-06-07 11:20:00,
2013-06-07 07:30:00,53.2,50.0,29.98,SE,137,4.0,4.0,89,0.00,,,0.08,Wunderground v.1.15,2013-06-07 11:30:00,
2013-06-07 07:40:00,53.3,50.1,29.97,SSE,148,4.0,15.0,89,0.00,,,0.08,Wunderground v.1.15,2013-06-07 11:40:00,
2013-06-07 07:50:00,53.3,50.4,29.98,ESE,121,4.0,15.0,90,0.00,,,0.08,Wunderground v.1.15,2013-06-07 11:50:00,
2013-06-07 08:00:00,53.2,50.6,29.98,SW,228,4.0,4.0,91,0.00,,,0.09,Wunderground v.1.15,2013-06-07 12:00:00,
2013-06-07 08:10:00,53.2,50.6,29.98,ESE,121,4.0,15.0,91,0.00,,,0.09,Wunderground v.1.15,2013-06-07 12:10:00,
2013-06-07 08:20:00,53.1,50.8,29.98,NE,49,5.0,15.0,92,0.00,,,0.10,Wunderground v.1.15,2013-06-07 12:20:00,
2013-06-07 08:30:00,52.9,50.6,29.98,SE,126,4.0,15.0,92,0.00,,,0.10,Wunderground v.1.15,2013-06-07 12:30:00,
2013-06-07 08:40:00,52.9,50.6,29.98,ENE,71,4.0,15.0,92,0.00,,,0.11,Wunderground v.1.15,2013-06-07 12:40:00,
2013-06-07 08:50:00,53.1,50.8,29.99,South,170,4.0,4.0,92,0.00,,,0.11,Wunderground v.1.15,2013-06-07 12:50:00,
2013-06-07 10:40:00,52.3,50.0,29.99,NE,43,3.0,15.0,92,0.00,,,0.19,Wunderground v.1.15,2013-06-07 14:40:00,
2013-06-07 10:50:00,52.2,49.9,29.99,ESE,121,4.0,15.0,92,0.00,,,0.19,Wunderground v.1.15,2013-06-07 14:50:00,
2013-06-07 11:00:00,52.3,50.0,29.99,East,87,4.0,4.0,92,0.00,,,0.20,Wunderground v.1.15,2013-06-07 15:00:00,
2013-06-07 11:10:00,52.3,50.0,29.99,South,185,4.0,15.0,92,0.05,,,0.21,Wunderground v.1.15,2013-06-07 15:10:00,
2013-06-07 11:20:00,52.0,49.7,29.99,East,95,5.0,15.0,92,0.05,,,0.21,Wunderground v.1.15,2013-06-07 15:20:00,
2013-06-07 11:30:00,52.0,49.7,29.99,ESE,121,5.0,5.0,92,0.05,,,0.22,Wunderground v.1.15,2013-06-07 15:30:00,
2013-06-07 11:40:00,52.3,50.3,29.99,SSE,168,2.0,2.0,93,0.00,,,0.23,Wunderground v.1.15,2013-06-07 15:40:00,
2013-06-07 11:50:00,52.5,50.5,29.99,ENE,58,3.0,15.0,93,0.00,,,0.23,Wunderground v.1.15,2013-06-07 15:50:00,
2013-06-07 12:00:00,52.6,50.6,29.99,SSE,149,4.0,4.0,93,0.00,,,0.23,Wunderground v.1.15,2013-06-07 16:00:00,
2013-06-07 12:10:00,52.8,50.5,29.98,ESE,104,2.0,2.0,92,0.00,,,0.23,Wunderground v.1.15,2013-06-07 16:10:00,
2013-06-07 12:20:00,52.8,50.5,29.98,South,180,2.0,2.0,92,0.00,,,0.23,Wunderground v.1.15,2013-06-07 16:20:00,
2013-06-07 12:30:00,52.6,50.3,29.98,East,81,3.0,3.0,92,0.00,,,0.24,Wunderground v.1.15,2013-06-07 16:30:00,
2013-06-07 12:40:00,52.6,50.3,29.98,SE,143,3.0,5.0,92,0.09,,,0.25,Wunderground v.1.15,2013-06-07 16:40:00,
2013-06-07 12:50:00,52.5,50.2,29.97,ESE,121,4.0,6.0,92,0.07,,,0.26,Wunderground v.1.15,2013-06-07 16:50:00,
2013-06-07 13:00:00,52.5,50.2,29.97,ESE,121,4.0,4.0,92,0.00,,,0.26,Wunderground v.1.15,2013-06-07 17:00:00,
2013-06-07 13:10:00,52.8,50.2,29.97,ESE,121,4.0,15.0,91,0.00,,,0.26,Wunderground v.1.15,2013-06-07 17:10:00,
2013-06-07 13:20:00,52.9,50.3,29.97,ESE,102,4.0,4.0,91,0.00,,,0.26,Wunderground v.1.15,2013-06-07 17:20:00,
2013-06-07 13:30:00,53.1,50.8,29.96,ESE,112,2.0,2.0,92,0.00,,,0.26,Wunderground v.1.15,2013-06-07 17:30:00,
2013-06-07 13:40:00,53.3,50.7,29.96,SE,139,2.0,2.0,91,0.00,,,0.26,Wunderground v.1.15,2013-06-07 17:40:00,
2013-06-07 13:50:00,53.5,50.6,29.96,South,186,3.0,15.0,90,0.00,,,0.26,Wunderground v.1.15,2013-06-07 17:50:00,
2013-06-07 14:00:00,53.6,50.4,29.96,South,174,2.0,2.0,89,0.00,,,0.27,Wunderground v.1.15,2013-06-07 18:00:00,
2013-06-07 14:10:00,53.6,50.4,29.96,ENE,64,2.0,15.0,89,0.00,,,0.27,Wunderground v.1.15,2013-06-07 18:10:00,
2013-06-07 14:20:00,53.9,51.0,29.95,South,170,3.0,3.0,90,0.00,,,0.27,Wunderground v.1.15,2013-06-07 18:20:00,
2013-06-07 14:50:00,53.9,50.7,29.95,East,100,3.0,15.0,89,0.00,,,0.27,Wunderground v.1.15,2013-06-07 18:50:00,
2013-06-07 15:00:00,53.9,51.0,29.95,ESE,121,2.0,15.0,90,0.00,,,0.28,Wunderground v.1.15,2013-06-07 19:00:00,
2013-06-07 15:10:00,53.9,51.0,29.94,SW,235,3.0,3.0,90,0.00,,,0.28,Wunderground v.1.15,2013-06-07 19:10:00,
2013-06-07 15:20:00,53.5,50.6,29.95,SW,224,3.0,15.0,90,0.00,,,0.29,Wunderground v.1.15,2013-06-07 19:20:00,
2013-06-07 15:30:00,53.3,50.7,29.93,SE,144,3.0,3.0,91,0.00,,,0.29,Wunderground v.1.15,2013-06-07 19:30:00,
2013-06-07 15:40:00,53.3,50.4,29.93,ENE,76,3.0,3.0,90,0.00,,,0.29,Wunderground v.1.15,2013-06-07 19:40:00,
2013-06-07 15:50:00,53.6,50.4,29.93,NNE,12,4.0,4.0,89,0.00,,,0.30,Wunderground v.1.15,2013-06-07 19:50:00,
2013-06-07 16:00:00,53.9,50.7,29.93,ESE,108,2.0,15.0,89,0.00,,,0.30,Wunderground v.1.15,2013-06-07 20:00:00,
2013-06-07 16:10:00,54.2,50.7,29.92,ENE,60,1.0,15.0,88,0.00,,,0.30,Wunderground v.1.15,2013-06-07 20:10:00,
2013-06-07 16:20:00,54.4,51.2,29.92,NE,41,1.0,15.0,89,0.00,,,0.30,Wunderground v.1.15,2013-06-07 20:20:00,
2013-06-07 16:30:00,54.4,51.2,29.92,ENE,57,2.0,2.0,89,0.00,,,0.30,Wunderground v.1.15,2013-06-07 20:30:00,
2013-06-07 16:40:00,54.4,50.9,29.91,NE,40,3.0,15.0,88,0.00,,,0.30,Wunderground v.1.15,2013-06-07 20:40:00,
2013-06-07 16:50:00,54.5,51.0,29.91,ESE,110,2.0,15.0,88,0.00,,,0.30,Wunderground v.1.15,2013-06-07 20:50:00,
2013-06-07 17:00:00,54.5,51.0,29.92,NNE,18,2.0,15.0,88,0.00,,,0.30,Wunderground v.1.15,2013-06-07 21:00:00,
2013-06-07 17:10:00,54.5,51.6,29.92,NE,35,3.0,3.0,90,0.00,,,0.30,Wunderground v.1.15,2013-06-07 21:10:00,
2013-06-07 17:20:00,54.7,52.4,29.91,NW,325,0.0,15.0,92,0.00,,,0.30,Wunderground v.1.15,2013-06-07 21:20:00,
2013-06-07 17:30:00,54.5,52.5,29.91,NW,308,1.0,15.0,93,0.00,,,0.31,Wunderground v.1.15,2013-06-07 21:30:00,
2013-06-07 17:40:00,54.5,52.8,29.91,NW,308,0.0,15.0,94,0.00,,,0.31,Wunderground v.1.15,2013-06-07 21:40:00,
2013-06-07 17:50:00,54.5,53.1,29.91,NW,308,0.0,15.0,95,0.00,,,0.31,Wunderground v.1.15,2013-06-07 21:50:00,
2013-06-07 18:00:00,54.5,53.4,29.91,NW,308,0.0,15.0,96,0.00,,,0.31,Wunderground v.1.15,2013-06-07 22:00:00,
2013-06-07 18:10:00,54.7,53.6,29.90,NW,308,0.0,0.0,96,0.00,,,0.32,Wunderground v.1.15,2013-06-07 22:10:00,
2013-06-07 18:20:00,54.2,52.8,29.90,ESE,116,0.0,0.0,95,0.04,,,0.33,Wunderground v.1.15,2013-06-07 22:20:00,
2013-06-07 18:30:00,54.2,51.9,29.90,ENE,62,1.0,1.0,92,0.04,,,0.33,Wunderground v.1.15,2013-06-07 22:30:00,
2013-06-07 18:40:00,54.4,52.7,29.89,ENE,62,0.0,0.0,94,0.00,,,0.34,Wunderground v.1.15,2013-06-07 22:40:00,
2013-06-07 18:50:00,54.2,52.5,29.89,ENE,62,0.0,0.0,94,0.00,,,0.34,Wunderground v.1.15,2013-06-07 22:50:00,
2013-06-07 19:00:00,54.1,52.1,29.89,ENE,68,1.0,5.0,93,0.00,,,0.34,Wunderground v.1.15,2013-06-07 23:00:00,
2013-06-07 19:10:00,54.1,52.1,29.88,SE,131,1.0,5.0,93,0.00,,,0.35,Wunderground v.1.15,2013-06-07 23:10:00,
2013-06-07 19:20:00,54.1,51.8,29.87,North,8,2.0,7.0,92,0.00,,,0.35,Wunderground v.1.15,2013-06-07 23:20:00,
2013-06-07 19:30:00,54.4,51.8,29.87,SSW,204,3.0,3.0,91,0.00,,,0.35,Wunderground v.1.15,2013-06-07 23:30:00,
2013-06-07 19:40:00,54.4,51.5,29.87,East,90,2.0,2.0,90,0.00,,,0.36,Wunderground v.1.15,2013-06-07 23:40:00,
2013-06-07 19:50:00,54.2,51.9,29.87,West,278,1.0,1.0,92,0.00,,,0.36,Wunderground v.1.15,2013-06-07 23:50:00,
2013-06-07 20:10:00,54.4,52.1,29.86,WSW,256,2.0,2.0,92,0.00,,,0.36,Wunderground v.1.15,2013-06-08 00:10:00,
2013-06-07 20:20:00,54.4,52.1,29.86,North,349,3.0,3.0,92,0.00,,,0.36,Wunderground v.1.15,2013-06-08 00:20:00,
2013-06-07 20:30:00,54.2,52.2,29.86,East,79,2.0,8.0,93,0.00,,,0.36,Wunderground v.1.15,2013-06-08 00:30:00,
2013-06-07 20:40:00,54.2,52.2,29.86,WSW,254,1.0,3.0,93,0.00,,,0.36,Wunderground v.1.15,2013-06-08 00:40:00,
2013-06-07 20:50:00,53.9,52.2,29.86,WSW,254,0.0,2.0,94,0.00,,,0.36,Wunderground v.1.15,2013-06-08 00:50:00,
2013-06-07 21:00:00,53.5,52.1,29.86,NE,50,1.0,1.0,95,0.00,,,0.36,Wunderground v.1.15,2013-06-08 01:00:00,
2013-06-07 21:10:00,53.9,51.0,29.86,North,3,2.0,2.0,90,0.00,,,0.37,Wunderground v.1.15,2013-06-08 01:10:00,
2013-06-07 21:20:00,53.9,51.0,29.86,NE,45,2.0,2.0,90,0.00,,,0.37,Wunderground v.1.15,2013-06-08 01:20:00,
2013-06-07 21:30:00,53.5,51.2,29.86,East,95,1.0,4.0,92,0.00,,,0.37,Wunderground v.1.15,2013-06-08 01:30:00,
2013-06-07 21:40:00,53.6,50.4,29.87,ESE,111,4.0,4.0,89,0.00,,,0.37,Wunderground v.1.15,2013-06-08 01:40:00,
2013-06-07 22:00:00,53.8,51.2,29.87,NW,324,3.0,3.0,91,0.00,,,0.37,Wunderground v.1.15,2013-06-08 02:00:00,
2013-06-07 22:10:00,53.5,50.9,29.87,NNW,337,2.0,2.0,91,0.00,,,0.38,Wunderground v.1.15,2013-06-08 02:10:00,
2013-06-07 22:20:00,53.3,50.7,29.87,SW,220,1.0,3.0,91,0.04,,,0.39,Wunderground v.1.15,2013-06-08 02:20:00,
2013-06-07 22:30:00,53.2,50.6,29.87,South,185,2.0,2.0,91,0.04,,,0.39,Wunderground v.1.15,2013-06-08 02:30:00,
2013-06-07 22:40:00,53.1,51.4,29.86,NNE,18,1.0,1.0,94,0.00,,,0.39,Wunderground v.1.15,2013-06-08 02:40:00,
2013-06-07 22:50:00,52.9,51.5,29.85,NE,41,1.0,3.0,95,0.00,,,0.40,Wunderground v.1.15,2013-06-08 02:50:00,
2013-06-07 23:00:00,52.9,50.9,29.84,WNW,282,3.0,3.0,93,0.04,,,0.41,Wunderground v.1.15,2013-06-08 03:00:00,
2013-06-07 23:10:00,52.9,50.9,29.84,NW,318,1.0,1.0,93,0.04,,,0.41,Wunderground v.1.15,2013-06-08 03:10:00,
2013-06-07 23:20:00,52.9,50.9,29.83,ENE,70,3.0,8.0,93,0.00,,,0.41,Wunderground v.1.15,2013-06-08 03:20:00,
2013-06-07 23:30:00,52.9,50.9,29.83,NW,310,1.0,1.0,93,0.00,,,0.41,Wunderground v.1.15,2013-06-08 03:30:00,